Time;durP1;ratioP1;P1;durP2;ratioP2;P2;SDS_P1;SDS_P2;PMS_P1;PMS_P2;Temp;Humidity;BMP_temperature;BMP_pressure;BME280_temperature;BME280_humidity;BME280_pressure;Samples;Min_cycle;Max_cycle;Signal;HPM_P1;HPM_P2
2021/10/15 00:03:00;;;;;;;7.57;4.17;;;;;;;;;;5005312;28;20186;-86
2021/10/15 00:06:04;;;;;;;5.30;3.60;;;;;;;;;;5005440;28;20189;-86
2021/10/15 00:09:08;;;;;;;6.57;4.30;;;;;;;;;;4994371;28;20182;-86
2021/10/15 00:12:13;;;;;;;5.73;4.37;;;;;;;;;;5005372;28;20555;-86
2021/10/15 00:15:18;;;;;;;6.17;3.87;;;;;;;;;;4994322;28;20222;-86
2021/10/15 00:18:22;;;;;;;5.83;3.40;;;;;;;;;;4993901;28;20221;-86
2021/10/15 00:21:26;;;;;;;4.70;3.50;;;;;;;;;;4993775;28;20187;-86
2021/10/15 00:24:30;;;;;;;8.00;3.57;;;;;;;;;;5004890;28;20567;-86
2021/10/15 00:27:34;;;;;;;4.73;3.43;;;;;;;;;;4993609;28;20225;-86
2021/10/15 00:30:40;;;;;;;3.73;3.10;;;;;;;;;;5004425;28;20668;-86
2021/10/15 00:33:45;;;;;;;5.77;3.73;;;;;;;;;;4993959;28;20194;-86
2021/10/15 00:36:49;;;;;;;9.00;3.67;;;;;;;;;;5004498;28;20233;-86
2021/10/15 00:39:53;;;;;;;4.40;3.07;;;;;;;;;;4993996;28;20182;-86
2021/10/15 00:42:57;;;;;;;9.27;3.20;;;;;;;;;;5015588;28;20201;-86
2021/10/15 00:46:01;;;;;;;5.73;3.70;;;;;;;;;;5004422;28;20197;-86
2021/10/15 00:49:07;;;;;;;7.20;3.10;;;;;;;;;;5004330;28;20193;-86
2021/10/15 00:52:12;;;;;;;4.13;2.90;;;;;;;;;;4993258;28;20197;-87
2021/10/15 00:55:16;;;;;;;5.40;3.10;;;;;;;;;;5004540;28;20214;-86
2021/10/15 00:58:20;;;;;;;8.17;3.47;;;;;;;;;;5004695;28;20217;-86
2021/10/15 01:01:25;;;;;;;5.47;3.70;;;;;;;;;;5004146;28;20544;-86
2021/10/15 01:04:29;;;;;;;3.97;3.13;;;;;;;;;;5015448;28;20208;-86
2021/10/15 01:07:33;;;;;;;4.87;3.20;;;;;;;;;;5004201;28;20221;-86
2021/10/15 01:10:37;;;;;;;3.30;2.97;;;;;;;;;;5004066;28;20181;-86
2021/10/15 01:13:42;;;;;;;3.90;3.50;;;;;;;;;;5004004;28;20210;-86
2021/10/15 01:16:46;;;;;;;9.13;3.67;;;;;;;;;;4992475;28;20229;-86
2021/10/15 01:19:55;;;;;;;3.67;3.27;;;;;;;;;;5004225;28;20186;-86
2021/10/15 01:22:59;;;;;;;4.63;3.70;;;;;;;;;;5003491;28;20186;-86
2021/10/15 01:26:04;;;;;;;4.23;3.70;;;;;;;;;;4992972;28;20628;-86
2021/10/15 01:29:08;;;;;;;6.40;4.27;;;;;;;;;;5004034;28;20183;-86
2021/10/15 01:32:14;;;;;;;5.50;4.20;;;;;;;;;;5003410;28;20205;-86
2021/10/15 01:35:18;;;;;;;4.47;3.60;;;;;;;;;;5003417;28;20221;-86
2021/10/15 01:38:23;;;;;;;4.17;3.57;;;;;;;;;;4992256;28;20225;-86
2021/10/15 01:41:26;;;;;;;7.80;4.10;;;;;;;;;;4992379;28;20182;-86
2021/10/15 01:44:30;;;;;;;4.97;3.73;;;;;;;;;;4992355;28;20181;-86
2021/10/15 01:47:34;;;;;;;4.87;3.40;;;;;;;;;;4992078;28;20220;-86
2021/10/15 01:50:39;;;;;;;4.90;3.53;;;;;;;;;;5014603;28;20186;-86
2021/10/15 01:53:43;;;;;;;4.17;3.77;;;;;;;;;;5003234;28;20182;-86
2021/10/15 01:56:47;;;;;;;5.03;4.40;;;;;;;;;;5003493;28;20233;-86
2021/10/15 01:59:51;;;;;;;4.70;4.00;;;;;;;;;;5002436;28;20545;-90
2021/10/15 02:02:55;;;;;;;4.63;3.60;;;;;;;;;;5014438;28;20189;-90
2021/10/15 02:05:59;;;;;;;5.60;4.30;;;;;;;;;;5003405;28;20189;-90
2021/10/15 02:09:03;;;;;;;5.97;3.87;;;;;;;;;;4991463;28;20205;-90
2021/10/15 02:12:07;;;;;;;6.10;4.23;;;;;;;;;;4992117;28;20190;-90
2021/10/15 02:15:12;;;;;;;5.87;3.93;;;;;;;;;;5014073;28;20185;-90
2021/10/15 02:18:17;;;;;;;6.73;3.80;;;;;;;;;;4991424;28;20221;-90
2021/10/15 02:21:20;;;;;;;7.90;3.70;;;;;;;;;;4980465;28;20189;-90
2021/10/15 02:24:25;;;;;;;6.93;4.40;;;;;;;;;;4991383;28;20189;-90
2021/10/15 02:27:29;;;;;;;9.17;3.97;;;;;;;;;;5013657;28;20220;-90
2021/10/15 02:30:33;;;;;;;5.23;3.57;;;;;;;;;;5011309;28;20189;-90
2021/10/15 02:33:38;;;;;;;8.50;4.10;;;;;;;;;;5010843;28;20201;-90
2021/10/15 02:36:43;;;;;;;6.83;4.20;;;;;;;;;;4999722;28;20232;-90
2021/10/15 02:39:46;;;;;;;6.40;4.00;;;;;;;;;;5010471;28;20548;-90
2021/10/15 02:42:50;;;;;;;5.13;3.63;;;;;;;;;;5011395;28;20188;-90
2021/10/15 02:45:55;;;;;;;5.43;4.37;;;;;;;;;;5022087;28;20193;-90
2021/10/15 02:48:59;;;;;;;6.03;4.10;;;;;;;;;;5011054;28;20181;-90
2021/10/15 02:52:03;;;;;;;4.87;4.10;;;;;;;;;;5010549;28;20204;-90
2021/10/15 02:55:08;;;;;;;5.37;4.00;;;;;;;;;;5021913;28;20205;-90
2021/10/15 02:58:12;;;;;;;6.80;4.40;;;;;;;;;;5010454;28;20571;-90
2021/10/15 03:01:17;;;;;;;5.33;4.37;;;;;;;;;;5021560;28;20200;-90
2021/10/15 03:04:21;;;;;;;6.20;4.73;;;;;;;;;;4999452;28;20177;-90
2021/10/15 03:07:25;;;;;;;6.33;4.80;;;;;;;;;;5021264;28;20216;-90
2021/10/15 03:10:30;;;;;;;5.20;4.43;;;;;;;;;;5032782;28;20205;-90
2021/10/15 03:13:34;;;;;;;6.63;4.43;;;;;;;;;;5022022;28;20184;-90
2021/10/15 03:16:38;;;;;;;9.80;5.53;;;;;;;;;;5010145;28;20228;-90
2021/10/15 03:19:42;;;;;;;7.27;5.10;;;;;;;;;;5010204;28;20557;-90
2021/10/15 03:22:47;;;;;;;7.70;5.33;;;;;;;;;;4999102;28;20189;-90
2021/10/15 03:25:51;;;;;;;8.77;5.27;;;;;;;;;;5021485;28;20623;-90
2021/10/15 03:28:55;;;;;;;6.27;4.73;;;;;;;;;;5001725;28;20178;-90
2021/10/15 03:31:59;;;;;;;8.80;4.20;;;;;;;;;;4990637;28;20209;-90
2021/10/15 03:35:04;;;;;;;6.17;4.23;;;;;;;;;;5002018;28;20564;-90
2021/10/15 03:38:09;;;;;;;7.27;4.20;;;;;;;;;;4979414;28;20217;-90
2021/10/15 03:41:13;;;;;;;8.93;4.53;;;;;;;;;;4990942;28;20190;-90
2021/10/15 03:44:17;;;;;;;6.67;4.37;;;;;;;;;;4990791;28;20189;-89
2021/10/15 03:47:21;;;;;;;5.80;4.13;;;;;;;;;;4990381;28;20221;-90
2021/10/15 03:50:25;;;;;;;5.03;3.90;;;;;;;;;;5001648;28;20641;-90
2021/10/15 03:53:29;;;;;;;6.37;4.00;;;;;;;;;;4990623;28;20181;-90
2021/10/15 03:56:33;;;;;;;5.77;4.63;;;;;;;;;;5001673;28;20233;-90
2021/10/15 03:59:37;;;;;;;4.57;4.07;;;;;;;;;;4990504;28;20633;-90
2021/10/15 04:02:44;;;;;;;6.40;4.20;;;;;;;;;;4990348;28;20186;-90
2021/10/15 04:05:48;;;;;;;6.00;3.90;;;;;;;;;;4990796;28;20189;-89
2021/10/15 04:08:53;;;;;;;4.07;3.67;;;;;;;;;;5013185;28;20181;-90
2021/10/15 04:11:57;;;;;;;5.30;3.90;;;;;;;;;;4990436;28;20628;-90
2021/10/15 04:15:02;;;;;;;7.20;4.07;;;;;;;;;;4990354;28;20183;-90
2021/10/15 04:18:06;;;;;;;5.83;3.93;;;;;;;;;;4989875;28;20213;-90
2021/10/15 04:21:10;;;;;;;5.93;4.27;;;;;;;;;;4990186;28;20185;-90
2021/10/15 04:24:14;;;;;;;5.33;3.90;;;;;;;;;;5004806;28;20189;-90
2021/10/15 04:27:19;;;;;;;5.40;4.17;;;;;;;;;;4983421;28;20225;-90
2021/10/15 04:30:27;;;;;;;7.93;4.53;;;;;;;;;;5004829;28;20521;-90
2021/10/15 04:33:31;;;;;;;6.00;5.10;;;;;;;;;;4993202;28;20201;-90
2021/10/15 04:36:35;;;;;;;5.37;4.17;;;;;;;;;;4993176;28;20237;-87
2021/10/15 04:39:40;;;;;;;6.97;4.00;;;;;;;;;;4993433;28;20197;-87
2021/10/15 04:42:44;;;;;;;6.80;4.57;;;;;;;;;;4993470;28;20640;-90
2021/10/15 04:45:48;;;;;;;5.27;4.03;;;;;;;;;;5015844;28;20186;-89
2021/10/15 04:48:56;;;;;;;5.47;4.43;;;;;;;;;;5004811;28;20191;-89
2021/10/15 04:52:00;;;;;;;5.23;4.23;;;;;;;;;;4993461;28;20202;-89
2021/10/15 04:55:11;;;;;;;4.43;3.70;;;;;;;;;;5004607;28;20186;-86
2021/10/15 04:58:18;;;;;;;5.07;4.03;;;;;;;;;;4993720;28;20588;-86
2021/10/15 05:01:23;;;;;;;4.00;3.50;;;;;;;;;;5004539;28;20181;-86
2021/10/15 05:04:27;;;;;;;5.50;3.60;;;;;;;;;;5004266;28;20189;-86
2021/10/15 05:07:31;;;;;;;5.60;4.17;;;;;;;;;;5015541;28;20213;-86
2021/10/15 05:10:40;;;;;;;3.70;3.40;;;;;;;;;;4993106;28;20186;-86
2021/10/15 05:13:44;;;;;;;4.50;3.30;;;;;;;;;;5004070;28;20201;-86
2021/10/15 05:16:48;;;;;;;4.30;3.43;;;;;;;;;;5003906;28;20237;-86
2021/10/15 05:19:52;;;;;;;5.43;3.60;;;;;;;;;;4992860;28;20201;-86
2021/10/15 05:22:57;;;;;;;4.03;3.40;;;;;;;;;;5004034;28;20213;-86
2021/10/15 05:26:01;;;;;;;4.23;3.43;;;;;;;;;;5015327;28;20201;-86
2021/10/15 05:29:05;;;;;;;5.87;3.60;;;;;;;;;;5004126;28;20541;-86
2021/10/15 05:32:09;;;;;;;4.67;3.40;;;;;;;;;;5003510;28;20186;-86
2021/10/15 05:35:13;;;;;;;11.50;3.53;;;;;;;;;;5002777;28;20190;-86
2021/10/15 05:38:17;;;;;;;7.23;3.87;;;;;;;;;;5003333;28;20236;-86
2021/10/15 05:41:21;;;;;;;4.47;3.40;;;;;;;;;;5014746;28;20190;-86
2021/10/15 05:44:26;;;;;;;5.23;3.73;;;;;;;;;;5015070;28;20649;-87
2021/10/15 05:47:30;;;;;;;4.53;3.60;;;;;;;;;;5014620;28;20209;-87
2021/10/15 05:50:34;;;;;;;6.20;3.80;;;;;;;;;;5026157;28;20193;-87
2021/10/15 05:53:38;;;;;;;7.57;3.70;;;;;;;;;;5003260;28;20197;-87
2021/10/15 05:56:59;;;;;;;4.43;3.30;;;;;;;;;;5003276;28;20692;-87
2021/10/15 06:00:07;;;;;;;6.77;3.43;;;;;;;;;;5003693;28;20197;-87
2021/10/15 06:03:18;;;;;;;4.97;3.87;;;;;;;;;;5014420;28;20549;-87
2021/10/15 06:16:33;;;;;;;5.80;3.20;;;;;;;;;;5014063;28;20221;-88
2021/10/15 06:19:52;;;;;;;5.30;3.20;;;;;;;;;;4991680;28;20189;-87
2021/10/15 06:22:56;;;;;;;6.80;3.67;;;;;;;;;;5014256;28;20198;-87
2021/10/15 06:26:01;;;;;;;3.87;3.30;;;;;;;;;;5013957;28;20178;-87
2021/10/15 06:29:05;;;;;;;4.40;3.07;;;;;;;;;;5002945;28;20177;-87
2021/10/15 06:32:09;;;;;;;4.27;3.53;;;;;;;;;;5013849;28;20204;-87
2021/10/15 06:35:13;;;;;;;5.93;3.23;;;;;;;;;;4991211;28;20205;-87
2021/10/15 06:38:17;;;;;;;5.80;3.57;;;;;;;;;;5013934;28;20233;-87
2021/10/15 06:41:21;;;;;;;6.57;3.80;;;;;;;;;;4991477;28;20190;-87
2021/10/15 06:44:26;;;;;;;4.97;4.20;;;;;;;;;;5002642;28;20181;-87
2021/10/15 06:47:31;;;;;;;6.83;4.50;;;;;;;;;;5013754;28;20588;-87
2021/10/15 06:50:35;;;;;;;6.17;5.10;;;;;;;;;;5002500;28;20197;-87
2021/10/15 06:53:39;;;;;;;7.23;4.97;;;;;;;;;;5002403;28;20186;-87
2021/10/15 06:56:43;;;;;;;7.40;5.60;;;;;;;;;;4991280;28;20220;-87
2021/10/15 06:59:47;;;;;;;7.13;4.90;;;;;;;;;;4991054;28;20201;-87
2021/10/15 07:02:51;;;;;;;6.63;4.80;;;;;;;;;;5002277;28;20641;-87
2021/10/15 07:05:56;;;;;;;7.07;4.73;;;;;;;;;;4991085;28;20190;-87
2021/10/15 07:09:00;;;;;;;7.97;4.97;;;;;;;;;;5002058;28;20177;-87
2021/10/15 07:12:04;;;;;;;10.60;4.80;;;;;;;;;;5002338;28;20625;-87
2021/10/15 07:15:11;;;;;;;7.07;4.20;;;;;;;;;;5002613;28;20189;-87
2021/10/15 07:18:15;;;;;;;6.57;4.47;;;;;;;;;;5001791;28;20692;-87
2021/10/15 07:21:19;;;;;;;9.13;5.90;;;;;;;;;;5002024;28;20190;-87
2021/10/15 07:24:23;;;;;;;9.33;4.43;;;;;;;;;;4990856;28;20189;-87
2021/10/15 07:27:27;;;;;;;6.23;4.70;;;;;;;;;;5009907;28;20228;-87
2021/10/15 07:30:32;;;;;;;5.43;4.60;;;;;;;;;;5010347;28;20181;-87
2021/10/15 07:33:36;;;;;;;6.33;4.80;;;;;;;;;;5021401;28;20188;-87
2021/10/15 07:36:40;;;;;;;3.90;3.50;;;;;;;;;;5032511;28;20216;-87
2021/10/15 07:39:44;;;;;;;5.83;3.57;;;;;;;;;;5021549;28;20188;-86
2021/10/15 07:42:49;;;;;;;6.30;3.43;;;;;;;;;;5021532;28;20181;-87
2021/10/15 07:45:53;;;;;;;3.90;3.50;;;;;;;;;;5010027;28;20177;-86
2021/10/15 07:48:57;;;;;;;3.30;2.73;;;;;;;;;;5021284;28;20188;-87
2021/10/15 07:52:02;;;;;;;3.60;2.97;;;;;;;;;;5021455;28;20185;-87
2021/10/15 07:55:07;;;;;;;3.90;3.50;;;;;;;;;;4998958;28;20529;-86
2021/10/15 07:58:11;;;;;;;3.67;3.33;;;;;;;;;;5011925;28;20225;-87
2021/10/15 08:01:15;;;;;;;4.27;3.33;;;;;;;;;;5025234;28;20548;-87
2021/10/15 08:04:20;;;;;;;5.60;3.50;;;;;;;;;;5002511;28;20184;-87
2021/10/15 08:07:24;;;;;;;3.13;2.77;;;;;;;;;;5013796;28;20213;-87
2021/10/15 08:10:29;;;;;;;6.13;4.40;;;;;;;;;;5002923;28;20177;-87
2021/10/15 08:13:33;;;;;;;4.77;4.27;;;;;;;;;;5002684;28;20640;-87
2021/10/15 08:16:37;;;;;;;6.77;3.93;;;;;;;;;;5013617;28;20216;-87
2021/10/15 08:19:42;;;;;;;4.60;3.97;;;;;;;;;;5025054;28;20185;-87
2021/10/15 08:22:53;;;;;;;4.57;3.87;;;;;;;;;;5013474;28;20200;-87
2021/10/15 08:25:58;;;;;;;3.70;3.30;;;;;;;;;;5002485;28;20189;-87
2021/10/15 14:29:46;;;;;;;5.13;2.87;;;;;;;;;;5112444;23;20242;-90
2021/10/15 14:32:54;;;;;;;3.10;2.57;;;;;;;;;;5049269;28;20195;-90
2021/10/15 14:35:59;;;;;;;3.67;2.50;;;;;;;;;;5060579;28;20179;-90
2021/10/15 14:39:04;;;;;;;7.33;3.00;;;;;;;;;;5071141;28;20210;-90
2021/10/15 14:42:09;;;;;;;3.47;2.33;;;;;;;;;;5071569;28;20187;-91
2021/10/15 14:45:14;;;;;;;6.63;2.97;;;;;;;;;;5083226;28;20183;-91
2021/10/15 14:48:18;;;;;;;11.47;3.10;;;;;;;;;;5071137;28;20222;-91
2021/10/15 14:51:24;;;;;;;5.47;3.50;;;;;;;;;;5070802;28;20202;-90
2021/10/15 14:54:28;;;;;;;4.50;3.37;;;;;;;;;;5070848;28;20175;-90
2021/10/15 14:57:32;;;;;;;5.80;3.70;;;;;;;;;;5059788;28;20182;-90
2021/10/15 15:00:36;;;;;;;16.83;4.30;;;;;;;;;;5082782;28;20179;-90
2021/10/15 15:03:41;;;;;;;10.93;6.73;;;;;;;;;;5071054;28;20187;-90
2021/10/15 15:06:45;;;;;;;13.03;9.50;;;;;;;;;;5071069;28;20183;-90
2021/10/15 15:09:49;;;;;;;14.77;9.97;;;;;;;;;;5068218;28;20230;-88
2021/10/15 15:12:54;;;;;;;3.67;2.70;;;;;;;;;;5054938;28;20190;-88
2021/10/15 15:15:58;;;;;;;2.80;2.40;;;;;;;;;;5054881;28;20183;-87
2021/10/15 15:19:03;;;;;;;2.87;2.43;;;;;;;;;;5066195;28;20210;-87
2021/10/15 15:22:07;;;;;;;11.10;2.40;;;;;;;;;;5065770;28;20183;-87
2021/10/15 15:25:11;;;;;;;5.10;2.77;;;;;;;;;;5066743;28;20178;-88
2021/10/15 15:28:16;;;;;;;3.83;2.63;;;;;;;;;;5077487;28;20222;-87
2021/10/15 15:31:20;;;;;;;5.27;2.43;;;;;;;;;;5076863;28;20178;-87
2021/10/15 15:34:24;;;;;;;3.03;2.17;;;;;;;;;;5053452;28;20190;-87
2021/10/15 15:37:28;;;;;;;13.43;3.27;;;;;;;;;;5076978;28;20187;-88
2021/10/15 15:40:33;;;;;;;9.43;2.67;;;;;;;;;;5053602;28;20546;-87
2021/10/15 15:43:37;;;;;;;3.23;1.97;;;;;;;;;;5053758;28;20521;-87
2021/10/15 15:46:43;;;;;;;3.80;2.13;;;;;;;;;;5053371;28;20190;-88
2021/10/15 15:49:50;;;;;;;4.17;2.20;;;;;;;;;;5053551;28;20565;-87
2021/10/15 15:52:54;;;;;;;2.50;2.00;;;;;;;;;;5065507;28;20673;-87
2021/10/15 15:55:58;;;;;;;4.20;2.10;;;;;;;;;;5053511;28;20183;-86
2021/10/15 15:59:02;;;;;;;6.63;2.00;;;;;;;;;;5076003;28;20629;-87
2021/10/15 16:02:07;;;;;;;9.63;2.60;;;;;;;;;;5065343;28;20194;-87
2021/10/15 16:05:12;;;;;;;4.63;2.40;;;;;;;;;;5064688;28;20202;-87
2021/10/15 16:08:16;;;;;;;9.17;2.27;;;;;;;;;;5064708;28;20296;-86
2021/10/15 16:11:20;;;;;;;7.67;2.10;;;;;;;;;;5064693;28;20551;-86
2021/10/15 16:14:52;;;;;;;4.17;2.47;;;;;;;;;;5065269;28;20645;-90
2021/10/15 16:17:56;;;;;;;11.03;2.93;;;;;;;;;;5053896;28;20187;-90
2021/10/15 16:21:00;;;;;;;9.07;2.47;;;;;;;;;;5068831;28;20179;-89
2021/10/15 16:24:05;;;;;;;3.50;2.10;;;;;;;;;;5068483;28;20183;-89
2021/10/15 16:27:09;;;;;;;4.30;2.27;;;;;;;;;;5068359;28;20190;-89
2021/10/15 16:30:13;;;;;;;3.13;2.07;;;;;;;;;;5020346;28;1082742;-89
2021/10/15 16:33:18;;;;;;;5.17;2.43;;;;;;;;;;5092483;28;20194;-89
2021/10/15 16:36:22;;;;;;;3.20;1.90;;;;;;;;;;5057724;28;20569;-89
2021/10/15 16:39:27;;;;;;;3.53;1.77;;;;;;;;;;5057964;28;20683;-89
2021/10/15 16:42:56;;;;;;;3.73;1.80;;;;;;;;;;5076215;28;20206;-89
2021/10/15 16:46:09;;;;;;;3.13;1.87;;;;;;;;;;5059046;28;20183;-89
2021/10/15 16:49:13;;;;;;;3.87;1.80;;;;;;;;;;5059620;28;20218;-89
2021/10/15 16:52:17;;;;;;;7.13;1.80;;;;;;;;;;5083357;28;20179;-89
2021/10/15 16:55:21;;;;;;;3.20;1.77;;;;;;;;;;5070609;28;20183;-89
2021/10/15 16:58:26;;;;;;;3.47;1.73;;;;;;;;;;5069613;28;20210;-88
2021/10/15 17:01:30;;;;;;;2.10;1.87;;;;;;;;;;5069691;28;20171;-89
2021/10/15 17:04:34;;;;;;;4.80;2.10;;;;;;;;;;5058022;28;20640;-89
2021/10/15 17:07:38;;;;;;;2.40;1.60;;;;;;;;;;5059273;28;20174;-89
2021/10/15 17:10:42;;;;;;;4.03;2.30;;;;;;;;;;5080201;28;20226;-88
2021/10/15 17:13:46;;;;;;;3.73;1.80;;;;;;;;;;5069332;28;20546;-89
2021/10/15 17:16:50;;;;;;;4.73;2.17;;;;;;;;;;5057641;28;20566;-88
2021/10/15 17:19:55;;;;;;;5.27;2.50;;;;;;;;;;5057660;28;20215;-88
2021/10/15 17:22:59;;;;;;;3.10;2.43;;;;;;;;;;5069083;28;20187;-89
2021/10/15 17:26:03;;;;;;;3.30;2.50;;;;;;;;;;5070978;28;20186;-89
2021/10/15 17:29:07;;;;;;;4.43;2.53;;;;;;;;;;5072705;28;20226;-89
2021/10/15 17:32:11;;;;;;;2.83;2.50;;;;;;;;;;5061366;28;20641;-89
2021/10/15 17:35:15;;;;;;;9.40;3.40;;;;;;;;;;5072603;28;20182;-88
2021/10/15 17:38:19;;;;;;;11.43;3.20;;;;;;;;;;5061119;28;20222;-89
2021/10/15 17:41:23;;;;;;;14.57;9.70;;;;;;;;;;5060425;28;20178;-89
2021/10/15 17:44:28;;;;;;;20.90;8.80;;;;;;;;;;5061221;28;20178;-88
2021/10/15 17:47:32;;;;;;;30.90;7.00;;;;;;;;;;5060995;28;20187;-89
2021/10/15 17:50:37;;;;;;;6.73;3.67;;;;;;;;;;5060764;28;20218;-89
2021/10/15 17:53:41;;;;;;;5.43;3.20;;;;;;;;;;5071723;28;20190;-89
2021/10/15 17:56:45;;;;;;;3.60;2.83;;;;;;;;;;5060650;28;20183;-88
2021/10/15 17:59:52;;;;;;;5.17;2.93;;;;;;;;;;5060268;28;20218;-89
2021/10/15 18:02:57;;;;;;;14.53;4.33;;;;;;;;;;5060165;28;20652;-89
2021/10/15 18:06:01;;;;;;;3.40;2.83;;;;;;;;;;5049406;28;20187;-89
2021/10/15 18:09:06;;;;;;;3.33;2.47;;;;;;;;;;5059371;28;20214;-89
2021/10/15 18:12:11;;;;;;;5.47;2.63;;;;;;;;;;5059916;28;20191;-89
2021/10/15 18:15:15;;;;;;;4.63;2.87;;;;;;;;;;5060203;28;20199;-89
2021/10/15 18:18:20;;;;;;;4.63;3.30;;;;;;;;;;5071378;28;20226;-89
2021/10/15 18:21:24;;;;;;;5.90;3.23;;;;;;;;;;5060262;28;20183;-89
2021/10/15 18:24:28;;;;;;;4.93;3.20;;;;;;;;;;5059972;28;20179;-89
2021/10/15 18:27:33;;;;;;;5.47;3.30;;;;;;;;;;5059947;28;20183;-89
2021/10/15 18:30:37;;;;;;;5.53;3.40;;;;;;;;;;5059362;28;20211;-89
2021/10/15 18:33:41;;;;;;;5.70;3.30;;;;;;;;;;5058810;28;20195;-86
2021/10/15 18:36:46;;;;;;;4.50;3.50;;;;;;;;;;5095109;28;20199;-89
2021/10/15 18:39:50;;;;;;;5.17;4.23;;;;;;;;;;5055447;28;20214;-87
2021/10/15 18:42:55;;;;;;;4.80;3.70;;;;;;;;;;5066555;28;20190;-87
2021/10/15 18:45:59;;;;;;;3.97;3.50;;;;;;;;;;5068456;28;20616;-87
2021/10/15 18:49:04;;;;;;;4.80;3.97;;;;;;;;;;5055100;28;20697;-88
2021/10/15 18:52:16;;;;;;;5.53;3.77;;;;;;;;;;5067293;28;20180;-87
2021/10/15 18:55:21;;;;;;;6.83;4.10;;;;;;;;;;5066954;28;20649;-88
2021/10/15 18:58:30;;;;;;;5.53;4.10;;;;;;;;;;5066518;28;20684;-87
2021/10/15 19:01:35;;;;;;;7.77;5.43;;;;;;;;;;5066235;28;20538;-88
2021/10/15 19:04:42;;;;;;;7.53;5.50;;;;;;;;;;5055313;28;20179;-89
2021/10/15 19:07:47;;;;;;;8.63;7.67;;;;;;;;;;5066449;28;20178;-89
2021/10/15 19:10:55;;;;;;;9.07;6.13;;;;;;;;;;5078095;28;20210;-89
2021/10/15 19:14:20;;;;;;;10.37;7.03;;;;;;;;;;5054949;28;20183;-89
2021/10/15 19:17:52;;;;;;;8.50;7.23;;;;;;;;;;5055182;28;20187;-89
2021/10/15 19:21:24;;;;;;;11.10;7.10;;;;;;;;;;5066375;28;20179;-90
2021/10/15 19:25:11;;;;;;;7.63;5.80;;;;;;;;;;5068518;28;20191;-89
2021/10/15 19:28:53;;;;;;;7.90;5.33;;;;;;;;;;5066466;28;20225;-89
2021/10/15 19:32:46;;;;;;;7.80;5.00;;;;;;;;;;5055434;28;20219;-89
2021/10/15 19:36:34;;;;;;;6.20;4.70;;;;;;;;;;5080945;28;20187;-88
2021/10/15 19:40:09;;;;;;;6.40;4.57;;;;;;;;;;5077348;28;20219;-89
2021/10/15 19:47:29;;;;;;;6.83;4.60;;;;;;;;;;5068536;28;20187;-88
2021/10/15 19:51:14;;;;;;;6.60;5.47;;;;;;;;;;5077456;28;20219;-89
2021/10/15 19:54:46;;;;;;;5.43;4.00;;;;;;;;;;5071873;28;20190;-89
2021/10/15 19:58:04;;;;;;;6.30;4.93;;;;;;;;;;5070472;28;20182;-89
2021/10/15 20:01:11;;;;;;;5.57;4.67;;;;;;;;;;5059101;28;20224;-88
2021/10/15 20:04:14;;;;;;;8.13;4.80;;;;;;;;;;5070192;28;20178;-89
2021/10/15 20:07:19;;;;;;;5.80;4.67;;;;;;;;;;5081547;28;20208;-88
2021/10/15 20:10:23;;;;;;;8.70;4.40;;;;;;;;;;5058382;28;20246;-89
2021/10/15 20:13:27;;;;;;;5.13;4.30;;;;;;;;;;5058409;28;20526;-88
2021/10/15 20:16:44;;;;;;;6.60;4.60;;;;;;;;;;5058420;28;20696;-89
2021/10/15 20:19:48;;;;;;;5.07;3.87;;;;;;;;;;5058486;28;20211;-90
2021/10/15 20:22:52;;;;;;;6.63;4.00;;;;;;;;;;5069476;28;20178;-88
2021/10/15 20:25:59;;;;;;;5.47;4.07;;;;;;;;;;5057670;28;20187;-89
2021/10/15 20:29:04;;;;;;;6.00;4.03;;;;;;;;;;5058049;28;20226;-88
2021/10/15 20:32:09;;;;;;;5.17;4.20;;;;;;;;;;5080866;28;20570;-88
2021/10/15 20:35:13;;;;;;;5.23;3.70;;;;;;;;;;5058133;28;20183;-88
2021/10/15 20:38:18;;;;;;;9.00;4.43;;;;;;;;;;5069231;28;20211;-88
2021/10/15 20:41:22;;;;;;;5.50;4.00;;;;;;;;;;5057882;28;20187;-89
2021/10/15 20:44:29;;;;;;;5.67;4.00;;;;;;;;;;5069094;28;20584;-89
2021/10/15 20:47:38;;;;;;;6.47;4.10;;;;;;;;;;5057631;28;20179;-89
2021/10/15 20:50:45;;;;;;;5.07;3.90;;;;;;;;;;5057454;28;20211;-89
2021/10/15 20:53:52;;;;;;;4.87;3.50;;;;;;;;;;5069053;28;20183;-88
2021/10/15 20:56:56;;;;;;;4.43;3.87;;;;;;;;;;5069234;28;20724;-88
2021/10/15 21:00:01;;;;;;;4.90;3.57;;;;;;;;;;5057459;28;20226;-88
2021/10/15 21:03:05;;;;;;;5.73;3.80;;;;;;;;;;5057108;28;20182;-89
2021/10/15 21:06:10;;;;;;;6.27;4.03;;;;;;;;;;5057710;28;20179;-88
2021/10/15 21:09:15;;;;;;;5.30;3.10;;;;;;;;;;5068797;28;20569;-89
2021/10/15 21:12:26;;;;;;;10.33;3.90;;;;;;;;;;5057348;28;20214;-89
2021/10/15 21:15:33;;;;;;;7.50;3.70;;;;;;;;;;5057667;28;20179;-88
2021/10/15 21:18:37;;;;;;;5.13;3.73;;;;;;;;;;5055350;28;20218;-88
2021/10/15 21:21:42;;;;;;;3.97;3.57;;;;;;;;;;5057084;28;20182;-89
2021/10/15 21:24:47;;;;;;;4.17;3.60;;;;;;;;;;5069063;28;20175;-90
2021/10/15 21:27:51;;;;;;;4.47;3.83;;;;;;;;;;5057145;28;20213;-90
2021/10/15 21:30:54;;;;;;;4.10;3.23;;;;;;;;;;5068814;28;20211;-89
2021/10/15 21:33:58;;;;;;;4.20;3.50;;;;;;;;;;5068407;28;20183;-89
2021/10/15 21:37:10;;;;;;;4.50;3.30;;;;;;;;;;5080140;28;20592;-89
2021/10/15 21:40:14;;;;;;;4.10;3.50;;;;;;;;;;5057529;28;20187;-89
2021/10/15 21:43:18;;;;;;;3.83;3.43;;;;;;;;;;5068526;28;20546;-89
2021/10/15 21:46:25;;;;;;;4.47;3.90;;;;;;;;;;5080409;28;20539;-87
2021/10/15 21:49:30;;;;;;;7.87;3.90;;;;;;;;;;5057147;28;20214;-89
2021/10/15 21:52:34;;;;;;;5.37;3.80;;;;;;;;;;5064071;28;20214;-89
2021/10/15 21:55:39;;;;;;;5.10;3.70;;;;;;;;;;5046449;28;20199;-89
2021/10/15 21:58:43;;;;;;;5.30;3.83;;;;;;;;;;5068993;28;20572;-89
2021/10/15 22:01:50;;;;;;;4.70;4.03;;;;;;;;;;5069142;28;20178;-88
2021/10/15 22:04:55;;;;;;;8.70;4.03;;;;;;;;;;5068804;28;20174;-88
2021/10/15 22:08:00;;;;;;;5.30;3.73;;;;;;;;;;5069544;28;20183;-89
2021/10/15 22:11:17;;;;;;;5.23;3.63;;;;;;;;;;5069570;28;20202;-89
2021/10/15 22:14:24;;;;;;;5.33;3.60;;;;;;;;;;5058019;28;20266;-89
2021/10/15 22:17:40;;;;;;;4.93;3.70;;;;;;;;;;5069514;28;20175;-90
2021/10/15 22:25:06;;;;;;;6.90;3.70;;;;;;;;;;5068780;28;20207;-90
2021/10/15 22:32:00;;;;;;;5.10;4.17;;;;;;;;;;5080453;28;20202;-90
2021/10/15 22:35:13;;;;;;;7.30;4.50;;;;;;;;;;5057268;28;20178;-90
2021/10/15 22:38:26;;;;;;;6.53;4.37;;;;;;;;;;5068820;28;20222;-90
2021/10/15 22:42:10;;;;;;;4.90;4.27;;;;;;;;;;5071533;28;20175;-90
2021/10/15 22:45:35;;;;;;;6.27;4.60;;;;;;;;;;5047920;28;20591;-89
2021/10/15 22:50:24;;;;;;;;;;;;;;;;;;;;;
2021/10/15 22:54:26;;;;;;;5.50;4.30;;;;;;;;;;5051875;28;20573;-90
2021/10/15 22:58:33;;;;;;;7.17;5.37;;;;;;;;;;5072676;28;20179;-90
2021/10/15 23:02:35;;;;;;;11.03;5.37;;;;;;;;;;5070618;28;20187;-89
2021/10/15 23:07:08;;;;;;;7.77;4.67;;;;;;;;;;5086113;28;20183;-89
2021/10/15 23:10:36;;;;;;;5.83;4.37;;;;;;;;;;5085152;28;20534;-90
2021/10/15 23:13:50;;;;;;;8.83;5.07;;;;;;;;;;5058528;28;20179;-89
2021/10/15 23:25:46;;;;;;;7.23;5.63;;;;;;;;;;5070168;28;20184;-89
2021/10/15 23:33:21;;;;;;;7.37;6.03;;;;;;;;;;5080056;28;20585;-89
2021/10/15 23:38:06;;;;;;;8.73;4.83;;;;;;;;;;5085395;28;20645;-89
2021/10/15 23:42:37;;;;;;;8.30;6.10;;;;;;;;;;5081621;28;20194;-89
2021/10/15 23:46:39;;;;;;;8.80;5.60;;;;;;;;;;5085125;28;20191;-89
2021/10/15 23:53:52;;;;;;;7.80;5.33;;;;;;;;;;5032125;28;20228;-89
2021/10/15 23:58:38;;;;;;;7.27;5.37;;;;;;;;;;5012860;28;20647;-90
